createdAt,value
2022-09-30T00:01:05.262Z,5.65
2022-09-30T00:03:32.701Z,5.93
2022-09-30T00:06:08.722Z,6.78
2022-09-30T00:08:38.349Z,6.05
2022-09-30T00:11:09.351Z,5.82
2022-09-30T00:13:40.085Z,6.35
2022-09-30T00:16:08.691Z,5.72
2022-09-30T00:18:36.679Z,7.35
2022-09-30T00:21:05.142Z,7.55
2022-09-30T00:23:32.751Z,6.28
2022-09-30T00:26:05.559Z,7.30
2022-09-30T00:28:33.285Z,6.07
2022-09-30T00:31:02.788Z,6.47
2022-09-30T00:33:30.305Z,6.40
2022-09-30T00:35:57.906Z,6.00
2022-09-30T00:38:25.365Z,5.43
2022-09-30T00:40:52.864Z,5.03
2022-09-30T00:43:40.822Z,5.57
2022-09-30T00:46:18.008Z,4.60
2022-09-30T00:48:50.865Z,4.40
2022-09-30T00:51:19.061Z,5.38
2022-09-30T00:53:54.358Z,4.45
2022-09-30T00:56:26.464Z,4.75
2022-09-30T00:59:09.457Z,5.68
2022-09-30T01:01:41.059Z,3.97
2022-09-30T01:04:15.520Z,5.18
2022-09-30T01:09:12.405Z,4.88
2022-09-30T01:11:40.799Z,5.43
2022-09-30T01:14:19.134Z,4.63
2022-09-30T01:16:58.749Z,5.05
2022-09-30T01:19:58.152Z,4.30
2022-09-30T01:22:42.535Z,4.85
2022-09-30T01:25:18.796Z,4.50
2022-09-30T01:28:07.533Z,3.83
2022-09-30T01:31:07.899Z,4.57
2022-09-30T01:34:11.395Z,4.25
2022-09-30T01:36:54.846Z,4.93
2022-09-30T01:39:34.122Z,4.97
2022-09-30T01:42:19.436Z,4.05
2022-09-30T01:45:03.527Z,3.92
2022-09-30T01:47:44.413Z,4.60
2022-09-30T01:50:33.719Z,3.53
2022-09-30T01:53:21.869Z,3.47
2022-09-30T01:56:01.793Z,4.20
2022-09-30T01:58:45.613Z,3.53
2022-09-30T02:01:20.623Z,4.13
2022-09-30T02:03:56.760Z,4.00
2022-09-30T02:06:34.579Z,3.83
2022-09-30T02:09:13.250Z,3.80
2022-09-30T02:11:42.730Z,4.10
2022-09-30T02:14:20.351Z,4.35
2022-09-30T02:16:54.506Z,4.35
2022-09-30T02:19:34.798Z,3.47
2022-09-30T02:22:09.107Z,3.78
2022-09-30T02:24:38.024Z,3.53
2022-09-30T02:27:23.112Z,3.75
2022-09-30T02:29:56.777Z,4.50
2022-09-30T02:32:32.647Z,3.83
2022-09-30T02:35:10.057Z,4.15
2022-09-30T02:37:42.058Z,4.55
2022-09-30T02:40:32.711Z,4.03
2022-09-30T02:43:00.320Z,3.95
2022-09-30T02:45:29.222Z,3.55
2022-09-30T02:48:23.252Z,4.55
2022-09-30T02:51:03.895Z,5.30
2022-09-30T02:53:48.289Z,3.10
2022-09-30T02:56:47.727Z,3.72
2022-09-30T02:59:15.626Z,3.60
2022-09-30T03:01:44.400Z,3.60
2022-09-30T03:04:16.034Z,3.45
2022-09-30T03:06:43.780Z,4.10
2022-09-30T03:09:11.498Z,3.40
2022-09-30T03:11:39.076Z,3.75
2022-09-30T03:14:24.002Z,3.03
2022-09-30T03:16:57.442Z,3.45
2022-09-30T03:19:46.601Z,3.85
2022-09-30T03:22:47.718Z,3.22
2022-09-30T03:25:34.247Z,4.28
2022-09-30T03:28:18.936Z,3.45
2022-09-30T03:31:12.104Z,2.83
2022-09-30T03:34:08.790Z,4.50
2022-09-30T03:36:46.738Z,3.88
2022-09-30T03:39:33.134Z,3.97
2022-09-30T03:42:20.653Z,3.70
2022-09-30T03:45:12.898Z,4.15
2022-09-30T03:47:54.423Z,3.92
2022-09-30T03:50:24.471Z,4.32
2022-09-30T03:52:52.549Z,4.22
2022-09-30T03:55:22.499Z,3.80
2022-09-30T03:57:51.279Z,4.88
2022-09-30T04:00:19.292Z,4.63
2022-09-30T04:02:46.790Z,3.05
2022-09-30T04:05:14.330Z,4.15
2022-09-30T04:07:41.800Z,4.45
2022-09-30T04:10:09.781Z,5.38
2022-09-30T04:12:37.380Z,4.60
2022-09-30T04:15:06.187Z,3.63
2022-09-30T04:17:33.661Z,4.22
2022-09-30T04:20:01.279Z,3.88
2022-09-30T04:22:28.759Z,3.38
2022-09-30T04:24:56.272Z,3.38
2022-09-30T04:27:23.753Z,3.28
2022-09-30T04:29:51.236Z,4.75
2022-09-30T04:32:18.687Z,3.33
2022-09-30T04:34:46.174Z,4.25
2022-09-30T04:37:14.201Z,4.38
2022-09-30T04:39:41.894Z,3.53
2022-09-30T04:42:09.433Z,3.55
2022-09-30T04:44:37.071Z,3.47
2022-09-30T04:47:04.751Z,3.97
2022-09-30T04:49:32.227Z,3.95
2022-09-30T04:51:59.699Z,4.50
2022-09-30T04:54:27.197Z,6.47
2022-09-30T04:56:54.665Z,3.47
2022-09-30T04:59:22.299Z,4.28
2022-09-30T05:01:49.920Z,4.80
2022-09-30T05:04:17.645Z,3.90
2022-09-30T05:06:45.145Z,5.10
2022-09-30T05:09:12.654Z,4.32
2022-09-30T05:11:42.221Z,4.57
2022-09-30T05:14:10.011Z,5.25
2022-09-30T05:16:37.795Z,6.50
2022-09-30T05:19:05.386Z,6.15
2022-09-30T05:21:32.902Z,4.75
2022-09-30T05:24:00.446Z,5.75
2022-09-30T05:26:28.185Z,5.85
2022-09-30T05:28:55.682Z,6.63
2022-09-30T05:31:23.242Z,7.63
2022-09-30T05:33:54.566Z,5.53
2022-09-30T05:36:24.786Z,5.70
2022-09-30T05:38:52.926Z,5.88
2022-09-30T05:41:21.102Z,6.65
2022-09-30T05:43:49.595Z,6.53
2022-09-30T05:46:19.121Z,8.38
2022-09-30T05:48:47.351Z,6.50
2022-09-30T05:51:14.896Z,7.72
2022-09-30T05:53:42.521Z,8.23
2022-09-30T05:56:11.503Z,8.40
2022-09-30T05:58:40.622Z,8.55
2022-09-30T06:01:14.255Z,9.13
2022-09-30T06:03:46.672Z,7.60
2022-09-30T06:06:15.584Z,7.53
2022-09-30T06:08:43.797Z,8.15
2022-09-30T06:11:23.485Z,7.72
2022-09-30T06:13:50.999Z,7.82
2022-09-30T06:16:19.943Z,7.97
2022-09-30T06:18:47.508Z,7.57
2022-09-30T06:21:17.595Z,7.93
2022-09-30T06:23:45.399Z,7.65
2022-09-30T06:26:14.364Z,7.82
2022-09-30T06:28:42.709Z,9.30
2022-09-30T06:31:11.436Z,7.85
2022-09-30T06:33:39.105Z,7.97
2022-09-30T06:36:07.213Z,9.02
2022-09-30T06:38:37.652Z,8.80
2022-09-30T06:41:05.888Z,6.72
2022-09-30T06:43:41.502Z,8.30
2022-09-30T06:46:30.331Z,7.78
2022-09-30T06:49:10.104Z,8.25
2022-09-30T06:51:39.958Z,8.48
2022-09-30T06:54:07.950Z,9.93
2022-09-30T06:56:35.563Z,11.02
2022-09-30T06:59:03.199Z,10.52
2022-09-30T07:01:30.810Z,10.38
2022-09-30T07:03:58.847Z,10.55
2022-09-30T07:06:27.445Z,11.35
2022-09-30T07:08:55.179Z,9.68
2022-09-30T07:11:24.177Z,9.13
2022-09-30T07:13:51.687Z,9.60
2022-09-30T07:16:21.300Z,9.25
2022-09-30T07:18:48.929Z,9.05
2022-09-30T07:21:17.164Z,9.63
2022-09-30T07:23:47.486Z,10.48
2022-09-30T07:26:23.598Z,9.88
2022-09-30T07:28:52.349Z,10.10
2022-09-30T07:31:32.318Z,11.40
2022-09-30T07:34:01.803Z,10.65
2022-09-30T07:36:33.254Z,12.50
2022-09-30T07:39:06.138Z,13.15
2022-09-30T07:41:36.908Z,10.82
2022-09-30T07:44:06.754Z,11.65
2022-09-30T07:46:38.550Z,11.35
2022-09-30T07:49:07.014Z,10.30
2022-09-30T07:51:39.499Z,11.98
2022-09-30T07:54:09.092Z,12.25
2022-09-30T07:59:28.291Z,10.30
2022-09-30T08:01:56.385Z,11.32
2022-09-30T08:04:25.835Z,10.77
2022-09-30T08:07:00.571Z,10.23
2022-09-30T08:09:30.660Z,9.30
2022-09-30T08:11:59.072Z,10.57
2022-09-30T08:14:28.797Z,10.77
2022-09-30T08:16:58.270Z,10.65
2022-09-30T08:19:26.662Z,10.35
2022-09-30T08:21:55.240Z,10.63
2022-09-30T08:24:24.025Z,11.48
2022-09-30T08:26:52.647Z,11.48
2022-09-30T08:29:35.653Z,12.93
2022-09-30T08:32:08.239Z,9.88
2022-09-30T08:34:36.108Z,9.98
2022-09-30T08:37:09.072Z,10.40
2022-09-30T08:39:38.301Z,9.05
2022-09-30T08:42:38.333Z,8.60
2022-09-30T08:45:19.480Z,8.20
2022-09-30T08:48:05.474Z,6.95
2022-09-30T08:50:47.227Z,7.90
2022-09-30T08:53:23.986Z,6.88
2022-09-30T08:55:52.473Z,4.95
2022-09-30T08:58:28.671Z,6.35
2022-09-30T09:01:10.653Z,7.03
2022-09-30T09:03:40.171Z,5.82
2022-09-30T09:06:33.824Z,4.78
2022-09-30T09:09:20.416Z,4.93
2022-09-30T09:12:00.911Z,4.55
2022-09-30T09:14:34.188Z,3.90
2022-09-30T09:17:20.118Z,3.70
2022-09-30T09:19:54.633Z,4.93
2022-09-30T09:22:24.819Z,3.35
2022-09-30T09:24:55.205Z,3.17
2022-09-30T09:27:47.873Z,3.33
2022-09-30T09:30:22.295Z,3.05
2022-09-30T09:32:57.189Z,2.72
2022-09-30T09:35:54.117Z,2.55
2022-09-30T09:38:36.029Z,2.35
2022-09-30T09:41:21.801Z,1.95
2022-09-30T09:43:52.713Z,2.40
2022-09-30T09:46:49.075Z,2.03
2022-09-30T09:49:20.709Z,1.60
2022-09-30T09:52:00.282Z,1.20
2022-09-30T09:54:31.142Z,1.33
2022-09-30T09:57:09.329Z,1.10
2022-09-30T09:59:37.751Z,1.40
2022-09-30T10:02:24.121Z,1.35
2022-09-30T10:04:59.962Z,2.00
2022-09-30T10:07:29.945Z,1.08
2022-09-30T10:10:23.376Z,0.95
2022-09-30T10:12:51.448Z,1.10
2022-09-30T10:15:24.348Z,1.38
2022-09-30T10:18:00.843Z,1.42
2022-09-30T10:20:33.511Z,1.13
2022-09-30T10:23:04.217Z,1.20
2022-09-30T10:25:32.056Z,1.10
2022-09-30T10:28:05.033Z,0.88
2022-09-30T10:30:44.357Z,0.70
2022-09-30T10:33:20.742Z,0.80
2022-09-30T10:36:04.186Z,0.55
2022-09-30T10:38:34.644Z,0.50
2022-09-30T10:41:04.093Z,0.43
2022-09-30T10:43:45.216Z,0.38
2022-09-30T10:46:25.687Z,0.43
2022-09-30T10:48:55.853Z,0.50
2022-09-30T10:51:28.137Z,0.32
2022-09-30T10:53:56.865Z,0.30
2022-09-30T10:56:37.928Z,0.35
2022-09-30T10:59:15.909Z,0.30
2022-09-30T11:01:55.205Z,0.60
2022-09-30T11:04:33.232Z,0.30
2022-09-30T11:07:22.703Z,0.35
2022-09-30T11:10:04.908Z,0.52
2022-09-30T11:16:04.019Z,0.60
2022-09-30T11:19:17.962Z,0.80
2022-09-30T11:22:01.603Z,0.63
2022-09-30T11:24:38.060Z,0.60
2022-09-30T11:27:11.397Z,0.68
2022-09-30T11:30:00.504Z,0.90
2022-09-30T11:32:59.135Z,0.70
2022-09-30T11:35:52.594Z,0.77
2022-09-30T11:38:38.075Z,1.00
2022-09-30T11:41:22.838Z,0.90
2022-09-30T11:44:05.587Z,0.80
2022-09-30T11:46:50.630Z,0.80
2022-09-30T11:49:39.902Z,1.00
2022-09-30T11:52:28.991Z,0.63
2022-09-30T11:55:33.633Z,0.68
2022-09-30T11:58:36.566Z,0.77
2022-09-30T12:01:26.433Z,0.85
2022-09-30T12:04:14.023Z,0.82
2022-09-30T12:07:07.407Z,0.80
2022-09-30T12:09:41.939Z,0.65
2022-09-30T12:12:16.560Z,0.73
2022-09-30T12:15:10.846Z,0.52
2022-09-30T12:17:50.322Z,0.50
2022-09-30T12:20:29.099Z,0.80
2022-09-30T12:23:06.468Z,1.17
2022-09-30T12:25:41.958Z,0.95
2022-09-30T12:28:51.336Z,1.00
2022-09-30T12:31:29.315Z,0.85
2022-09-30T12:34:32.023Z,0.80
2022-09-30T12:37:36.455Z,0.70
2022-09-30T12:40:13.666Z,0.85
2022-09-30T12:43:10.387Z,1.35
2022-09-30T12:46:05.992Z,1.25
2022-09-30T12:48:44.854Z,2.10
2022-09-30T12:51:24.001Z,1.20
2022-09-30T12:53:57.410Z,1.45
2022-09-30T12:56:30.318Z,1.48
2022-09-30T12:59:00.559Z,1.50
2022-09-30T13:01:35.949Z,1.73
2022-09-30T13:04:03.349Z,1.23
2022-09-30T13:06:46.414Z,1.40
2022-09-30T13:09:17.064Z,1.30
2022-09-30T13:11:49.201Z,1.02
2022-09-30T13:14:26.231Z,0.90
2022-09-30T13:17:09.254Z,0.90
2022-09-30T13:19:40.994Z,1.20
2022-09-30T13:22:20.931Z,1.00
2022-09-30T13:25:00.715Z,1.08
2022-09-30T13:27:35.464Z,1.00
2022-09-30T13:30:25.690Z,0.70
2022-09-30T13:32:57.701Z,1.25
2022-09-30T13:38:24.396Z,0.70
2022-09-30T13:41:04.129Z,0.70
2022-09-30T13:43:31.748Z,0.90
2022-09-30T13:46:05.747Z,0.90
2022-09-30T13:48:39.672Z,0.80
2022-09-30T13:51:14.592Z,1.00
2022-09-30T13:53:51.191Z,0.77
2022-09-30T13:56:26.154Z,0.85
2022-09-30T13:59:13.351Z,0.60
2022-09-30T14:01:55.052Z,0.50
2022-09-30T14:04:47.539Z,0.60
2022-09-30T14:10:11.400Z,0.47
2022-09-30T14:13:15.560Z,0.50
2022-09-30T14:16:07.496Z,0.57
2022-09-30T14:19:07.714Z,0.55
2022-09-30T14:21:43.713Z,0.68
2022-09-30T14:24:17.638Z,0.63
2022-09-30T14:27:04.746Z,1.00
2022-09-30T14:30:03.167Z,0.77
2022-09-30T14:32:52.757Z,0.70
2022-09-30T14:35:28.297Z,0.90
2022-09-30T14:38:00.321Z,1.00
2022-09-30T14:40:31.534Z,1.30
2022-09-30T14:43:05.103Z,1.53
2022-09-30T14:45:35.585Z,1.95
2022-09-30T14:48:09.204Z,1.55
2022-09-30T14:50:54.125Z,2.25
2022-09-30T14:53:34.041Z,2.10
2022-09-30T14:56:03.007Z,1.85
2022-09-30T14:58:33.190Z,1.73
2022-09-30T15:01:04.751Z,1.42
2022-09-30T15:03:35.216Z,1.70
2022-09-30T15:06:03.184Z,1.55
2022-09-30T15:08:30.774Z,1.30
2022-09-30T15:10:58.354Z,1.45
2022-09-30T15:13:31.831Z,1.42
2022-09-30T15:15:59.623Z,1.40
2022-09-30T15:18:28.632Z,1.30
2022-09-30T15:21:00.631Z,1.48
2022-09-30T15:23:34.371Z,1.33
2022-09-30T15:26:02.169Z,1.50
2022-09-30T15:28:29.849Z,1.67
2022-09-30T15:30:59.787Z,1.92
2022-09-30T15:33:31.808Z,2.10
2022-09-30T15:36:19.778Z,1.77
2022-09-30T15:38:51.214Z,2.30
2022-09-30T15:41:19.430Z,1.80
2022-09-30T15:43:54.481Z,2.13
2022-09-30T15:46:31.935Z,1.80
2022-09-30T15:49:02.639Z,1.50
2022-09-30T15:51:37.132Z,1.55
2022-09-30T15:54:28.668Z,1.35
2022-09-30T15:56:56.392Z,1.40
2022-09-30T15:59:23.877Z,1.85
2022-09-30T16:01:53.119Z,2.10
2022-09-30T16:04:22.811Z,2.08
2022-09-30T16:06:54.328Z,1.55
2022-09-30T16:09:24.647Z,1.70
2022-09-30T16:12:02.931Z,1.90
2022-09-30T16:14:52.328Z,2.22
2022-09-30T16:17:32.606Z,2.67
2022-09-30T16:20:21.234Z,2.03
2022-09-30T16:22:49.121Z,2.10
2022-09-30T16:25:32.699Z,1.60
2022-09-30T16:28:14.765Z,1.40
2022-09-30T16:30:45.184Z,2.35
2022-09-30T16:33:15.471Z,1.65
2022-09-30T16:35:44.891Z,1.88
2022-09-30T16:38:17.193Z,2.42
2022-09-30T16:40:44.721Z,1.70
2022-09-30T16:43:12.538Z,1.70
2022-09-30T16:45:42.361Z,1.73
2022-09-30T16:48:16.615Z,2.00
2022-09-30T16:51:03.598Z,1.75
2022-09-30T16:53:31.150Z,1.52
2022-09-30T16:55:58.792Z,1.45
2022-09-30T16:58:26.261Z,2.00
2022-09-30T17:00:54.428Z,2.22
2022-09-30T17:03:22.633Z,1.80
2022-09-30T17:05:52.765Z,1.90
2022-09-30T17:08:21.860Z,1.90
2022-09-30T17:10:50.055Z,1.73
2022-09-30T17:13:18.986Z,1.55
2022-09-30T17:15:51.018Z,2.00
2022-09-30T17:18:19.287Z,2.50
2022-09-30T17:20:52.366Z,2.50
2022-09-30T17:23:25.194Z,2.20
2022-09-30T17:25:53.701Z,1.90
2022-09-30T17:28:22.036Z,2.03
2022-09-30T17:30:50.416Z,2.28
2022-09-30T17:33:19.796Z,2.08
2022-09-30T17:35:59.293Z,1.98
2022-09-30T17:38:27.151Z,2.13
2022-09-30T17:41:12.485Z,2.15
2022-09-30T17:43:40.174Z,1.95
2022-09-30T17:46:07.729Z,2.15
2022-09-30T17:48:35.446Z,2.40
2022-09-30T17:51:02.890Z,1.88
2022-09-30T17:53:30.866Z,1.70
2022-09-30T17:56:10.153Z,2.38
2022-09-30T17:58:38.151Z,2.33
2022-09-30T18:01:09.732Z,2.72
2022-09-30T18:03:38.074Z,2.72
2022-09-30T18:06:05.594Z,2.42
2022-09-30T18:08:33.360Z,2.80
2022-09-30T18:11:00.959Z,2.17
2022-09-30T18:13:29.122Z,2.08
2022-09-30T18:15:59.620Z,1.75
2022-09-30T18:18:27.094Z,1.88
2022-09-30T18:20:54.560Z,2.25
2022-09-30T18:23:22.085Z,2.28
2022-09-30T18:25:51.979Z,2.72
2022-09-30T18:28:19.507Z,2.17
2022-09-30T18:30:47.125Z,2.33
2022-09-30T18:33:17.257Z,2.45
2022-09-30T18:35:44.807Z,2.00
2022-09-30T18:38:14.790Z,2.00
2022-09-30T18:40:45.579Z,2.40
2022-09-30T18:43:15.004Z,1.75
2022-09-30T18:45:43.260Z,1.90
2022-09-30T18:48:11.215Z,2.17
2022-09-30T18:50:38.927Z,2.17
2022-09-30T18:53:09.750Z,1.95
2022-09-30T18:55:38.821Z,1.80
2022-09-30T18:58:06.854Z,2.28
2022-09-30T19:00:34.501Z,2.05
2022-09-30T19:03:01.987Z,2.00
2022-09-30T19:05:29.462Z,1.83
2022-09-30T19:07:57.023Z,1.45
2022-09-30T19:10:25.582Z,1.88
2022-09-30T19:12:53.150Z,1.52
2022-09-30T19:15:20.875Z,1.63
2022-09-30T19:17:50.630Z,2.13
2022-09-30T19:20:18.241Z,1.70
2022-09-30T19:22:46.775Z,2.13
2022-09-30T19:25:16.353Z,1.92
2022-09-30T19:27:43.948Z,2.33
2022-09-30T19:30:14.673Z,1.65
2022-09-30T19:32:42.280Z,2.20
2022-09-30T19:35:12.046Z,1.60
2022-09-30T19:37:56.501Z,1.92
2022-09-30T19:40:27.703Z,1.40
2022-09-30T19:42:56.264Z,2.63
2022-09-30T19:45:26.421Z,1.60
2022-09-30T19:47:54.446Z,1.40
2022-09-30T19:50:22.036Z,2.15
2022-09-30T19:52:56.842Z,1.45
2022-09-30T19:55:26.525Z,1.95
2022-09-30T19:57:54.357Z,1.48
2022-09-30T20:00:22.039Z,1.70
2022-09-30T20:02:50.174Z,1.83
2022-09-30T20:05:18.356Z,1.95
2022-09-30T20:07:45.929Z,1.50
2022-09-30T20:10:14.119Z,1.50
2022-09-30T20:12:42.663Z,1.55
2022-09-30T20:15:37.386Z,1.52
2022-09-30T20:18:05.117Z,1.95
2022-09-30T20:20:42.757Z,1.40
2022-09-30T20:23:10.240Z,1.33
2022-09-30T20:25:38.301Z,1.25
2022-09-30T20:28:06.686Z,1.25
2022-09-30T20:30:38.228Z,1.10
2022-09-30T20:33:05.960Z,1.30
2022-09-30T20:35:36.916Z,1.63
2022-09-30T20:38:05.243Z,1.15
2022-09-30T20:40:34.413Z,1.50
2022-09-30T20:43:03.987Z,1.25
2022-09-30T20:45:31.518Z,1.40
2022-09-30T20:47:59.057Z,1.15
2022-09-30T20:50:38.542Z,1.23
2022-09-30T20:53:09.437Z,1.10
2022-09-30T20:55:39.293Z,1.08
2022-09-30T20:58:08.910Z,1.10
2022-09-30T21:00:39.711Z,1.10
2022-09-30T21:03:09.908Z,1.20
2022-09-30T21:05:37.780Z,1.38
2022-09-30T21:08:07.312Z,1.10
2022-09-30T21:10:36.918Z,1.27
2022-09-30T21:13:10.118Z,1.23
2022-09-30T21:15:39.572Z,1.30
2022-09-30T21:18:07.408Z,1.10
2022-09-30T21:20:35.155Z,1.38
2022-09-30T21:23:03.124Z,1.73
2022-09-30T21:25:31.961Z,1.40
2022-09-30T21:27:59.637Z,1.58
2022-09-30T21:30:27.199Z,1.50
2022-09-30T21:32:55.024Z,1.65
2022-09-30T21:35:22.503Z,1.70
2022-09-30T21:37:50.455Z,1.55
2022-09-30T21:40:18.985Z,2.80
2022-09-30T21:42:46.550Z,1.75
2022-09-30T21:45:14.049Z,1.60
2022-09-30T21:47:44.715Z,1.88
2022-09-30T21:50:12.917Z,1.77
2022-09-30T21:52:40.407Z,1.88
2022-09-30T21:55:08.170Z,1.90
2022-09-30T21:57:35.676Z,2.28
2022-09-30T22:00:03.571Z,2.13
2022-09-30T22:02:31.369Z,2.17
2022-09-30T22:04:58.922Z,2.00
2022-09-30T22:07:27.712Z,2.08
2022-09-30T22:09:55.467Z,2.50
2022-09-30T22:12:23.317Z,2.55
2022-09-30T22:14:50.937Z,2.45
2022-09-30T22:17:18.430Z,2.53
2022-09-30T22:19:45.895Z,3.15
2022-09-30T22:22:13.371Z,2.80
2022-09-30T22:24:40.992Z,2.95
2022-09-30T22:27:09.038Z,3.58
2022-09-30T22:29:36.688Z,3.38
2022-09-30T22:32:04.184Z,3.83
2022-09-30T22:34:49.300Z,3.95
2022-09-30T22:37:34.063Z,3.75
2022-09-30T22:40:03.173Z,4.40
2022-09-30T22:42:30.718Z,4.88
2022-09-30T22:44:58.267Z,4.80
2022-09-30T22:47:27.596Z,5.40
2022-09-30T22:49:55.179Z,4.70
2022-09-30T22:52:22.693Z,4.25
2022-09-30T22:54:50.187Z,4.45
2022-09-30T22:57:17.669Z,5.88
2022-09-30T22:59:47.591Z,4.20
2022-09-30T23:02:16.081Z,4.85
2022-09-30T23:04:44.083Z,6.03
2022-09-30T23:07:11.569Z,5.57
2022-09-30T23:09:39.213Z,5.10
2022-09-30T23:12:06.726Z,5.57
2022-09-30T23:14:34.166Z,5.65
2022-09-30T23:17:01.675Z,6.13
2022-09-30T23:19:29.167Z,5.35
2022-09-30T23:21:56.933Z,5.78
2022-09-30T23:24:24.419Z,6.88
2022-09-30T23:26:51.881Z,6.68
2022-09-30T23:29:19.363Z,5.85
2022-09-30T23:31:46.894Z,6.50
2022-09-30T23:34:14.515Z,5.75
2022-09-30T23:36:41.964Z,4.70
2022-09-30T23:39:20.125Z,4.93
2022-09-30T23:41:49.047Z,5.15
2022-09-30T23:44:19.009Z,6.20
2022-09-30T23:47:02.284Z,5.20
2022-09-30T23:49:35.260Z,5.55
2022-09-30T23:52:11.923Z,5.50
2022-09-30T23:54:41.502Z,5.60
2022-09-30T23:57:09.931Z,5.22
2022-09-30T23:59:37.661Z,4.90
